sensor_id;sensor_type;location;lat;lon;timestamp;P1;durP1;ratioP1;P2;durP2;ratioP2
40076;SDS011;25777;47.824;18.982;2023-08-20T00:00:44;11.40;;;7.70;;
40076;SDS011;25777;47.824;18.982;2023-08-20T00:05:48;12.93;;;7.85;;
40076;SDS011;25777;47.824;18.982;2023-08-20T00:10:56;11.63;;;7.78;;
40076;SDS011;25777;47.824;18.982;2023-08-20T00:13:22;12.55;;;7.70;;
40076;SDS011;25777;47.824;18.982;2023-08-20T00:15:48;10.63;;;7.70;;
40076;SDS011;25777;47.824;18.982;2023-08-20T00:20:45;11.52;;;7.75;;
40076;SDS011;25777;47.824;18.982;2023-08-20T00:23:12;13.25;;;7.88;;
40076;SDS011;25777;47.824;18.982;2023-08-20T00:28:15;13.38;;;7.43;;
40076;SDS011;25777;47.824;18.982;2023-08-20T00:30:43;13.13;;;7.78;;
40076;SDS011;25777;47.824;18.982;2023-08-20T00:33:11;11.73;;;8.43;;
40076;SDS011;25777;47.824;18.982;2023-08-20T00:35:43;12.55;;;8.10;;
40076;SDS011;25777;47.824;18.982;2023-08-20T00:38:23;13.18;;;7.75;;
40076;SDS011;25777;47.824;18.982;2023-08-20T00:41:01;15.73;;;7.43;;
40076;SDS011;25777;47.824;18.982;2023-08-20T00:46:09;10.50;;;7.22;;
40076;SDS011;25777;47.824;18.982;2023-08-20T00:51:07;12.05;;;8.30;;
40076;SDS011;25777;47.824;18.982;2023-08-20T00:53:35;10.50;;;7.63;;
40076;SDS011;25777;47.824;18.982;2023-08-20T00:56:01;13.82;;;8.32;;
40076;SDS011;25777;47.824;18.982;2023-08-20T00:58:27;11.85;;;8.23;;
40076;SDS011;25777;47.824;18.982;2023-08-20T01:00:55;12.00;;;7.80;;
40076;SDS011;25777;47.824;18.982;2023-08-20T01:03:22;12.88;;;8.18;;
40076;SDS011;25777;47.824;18.982;2023-08-20T01:05:58;11.13;;;7.80;;
40076;SDS011;25777;47.824;18.982;2023-08-20T01:08:42;11.60;;;7.88;;
40076;SDS011;25777;47.824;18.982;2023-08-20T01:11:42;11.48;;;8.20;;
40076;SDS011;25777;47.824;18.982;2023-08-20T01:14:16;12.50;;;7.68;;
40076;SDS011;25777;47.824;18.982;2023-08-20T01:19:27;13.77;;;7.88;;
40076;SDS011;25777;47.824;18.982;2023-08-20T01:28:29;15.10;;;7.90;;
40076;SDS011;25777;47.824;18.982;2023-08-20T01:30:56;14.13;;;7.82;;
40076;SDS011;25777;47.824;18.982;2023-08-20T01:33:26;11.18;;;7.47;;
40076;SDS011;25777;47.824;18.982;2023-08-20T01:35:54;12.02;;;7.88;;
40076;SDS011;25777;47.824;18.982;2023-08-20T01:41:06;15.75;;;8.15;;
40076;SDS011;25777;47.824;18.982;2023-08-20T01:46:11;11.10;;;7.47;;
40076;SDS011;25777;47.824;18.982;2023-08-20T01:48:48;11.23;;;7.68;;
40076;SDS011;25777;47.824;18.982;2023-08-20T01:51:21;11.63;;;8.40;;
40076;SDS011;25777;47.824;18.982;2023-08-20T01:53:49;13.43;;;8.80;;
40076;SDS011;25777;47.824;18.982;2023-08-20T01:56:15;15.73;;;8.27;;
40076;SDS011;25777;47.824;18.982;2023-08-20T01:58:41;13.45;;;8.05;;
40076;SDS011;25777;47.824;18.982;2023-08-20T02:01:08;14.05;;;8.45;;
40076;SDS011;25777;47.824;18.982;2023-08-20T02:11:07;14.27;;;8.02;;
40076;SDS011;25777;47.824;18.982;2023-08-20T02:13:33;12.10;;;8.30;;
40076;SDS011;25777;47.824;18.982;2023-08-20T02:16:02;14.10;;;7.97;;
40076;SDS011;25777;47.824;18.982;2023-08-20T02:18:30;13.70;;;8.40;;
40076;SDS011;25777;47.824;18.982;2023-08-20T02:20:57;12.63;;;8.30;;
40076;SDS011;25777;47.824;18.982;2023-08-20T02:23:25;12.52;;;8.48;;
40076;SDS011;25777;47.824;18.982;2023-08-20T02:25:52;12.63;;;8.18;;
40076;SDS011;25777;47.824;18.982;2023-08-20T02:30:50;14.20;;;8.25;;
40076;SDS011;25777;47.824;18.982;2023-08-20T02:33:23;12.43;;;8.13;;
40076;SDS011;25777;47.824;18.982;2023-08-20T02:35:50;12.60;;;8.63;;
40076;SDS011;25777;47.824;18.982;2023-08-20T02:38:16;11.57;;;7.97;;
40076;SDS011;25777;47.824;18.982;2023-08-20T02:40:42;12.45;;;8.20;;
40076;SDS011;25777;47.824;18.982;2023-08-20T02:43:09;13.10;;;8.52;;
40076;SDS011;25777;47.824;18.982;2023-08-20T02:45:41;13.35;;;8.25;;
40076;SDS011;25777;47.824;18.982;2023-08-20T02:48:08;14.45;;;8.73;;
40076;SDS011;25777;47.824;18.982;2023-08-20T02:50:40;12.73;;;8.60;;
40076;SDS011;25777;47.824;18.982;2023-08-20T02:53:12;12.57;;;8.13;;
40076;SDS011;25777;47.824;18.982;2023-08-20T02:55:38;12.32;;;8.07;;
40076;SDS011;25777;47.824;18.982;2023-08-20T02:58:08;13.02;;;8.55;;
40076;SDS011;25777;47.824;18.982;2023-08-20T03:00:41;13.38;;;8.23;;
40076;SDS011;25777;47.824;18.982;2023-08-20T03:03:12;12.68;;;8.27;;
40076;SDS011;25777;47.824;18.982;2023-08-20T03:05:40;11.95;;;8.10;;
40076;SDS011;25777;47.824;18.982;2023-08-20T03:08:06;13.60;;;8.30;;
40076;SDS011;25777;47.824;18.982;2023-08-20T03:10:33;11.23;;;8.10;;
40076;SDS011;25777;47.824;18.982;2023-08-20T03:13:03;13.55;;;8.10;;
40076;SDS011;25777;47.824;18.982;2023-08-20T03:15:29;11.98;;;7.60;;
40076;SDS011;25777;47.824;18.982;2023-08-20T03:17:56;11.77;;;8.43;;
40076;SDS011;25777;47.824;18.982;2023-08-20T03:20:22;13.45;;;8.60;;
40076;SDS011;25777;47.824;18.982;2023-08-20T03:25:26;12.00;;;8.65;;
40076;SDS011;25777;47.824;18.982;2023-08-20T03:30:52;12.35;;;7.25;;
40076;SDS011;25777;47.824;18.982;2023-08-20T03:36:00;15.73;;;8.38;;
40076;SDS011;25777;47.824;18.982;2023-08-20T03:38:26;12.35;;;8.15;;
40076;SDS011;25777;47.824;18.982;2023-08-20T03:40:52;13.25;;;8.20;;
40076;SDS011;25777;47.824;18.982;2023-08-20T03:43:21;13.57;;;7.63;;
40076;SDS011;25777;47.824;18.982;2023-08-20T03:48:22;12.60;;;8.57;;
40076;SDS011;25777;47.824;18.982;2023-08-20T03:50:57;14.05;;;8.48;;
40076;SDS011;25777;47.824;18.982;2023-08-20T03:53:24;16.67;;;8.70;;
40076;SDS011;25777;47.824;18.982;2023-08-20T03:55:50;13.38;;;8.65;;
40076;SDS011;25777;47.824;18.982;2023-08-20T03:58:27;18.55;;;8.85;;
40076;SDS011;25777;47.824;18.982;2023-08-20T04:00:53;14.50;;;9.60;;
40076;SDS011;25777;47.824;18.982;2023-08-20T04:03:26;13.95;;;8.77;;
40076;SDS011;25777;47.824;18.982;2023-08-20T04:05:52;12.02;;;8.32;;
40076;SDS011;25777;47.824;18.982;2023-08-20T04:08:24;14.98;;;8.95;;
40076;SDS011;25777;47.824;18.982;2023-08-20T04:10:51;15.32;;;9.27;;
40076;SDS011;25777;47.824;18.982;2023-08-20T04:13:17;18.10;;;9.38;;
40076;SDS011;25777;47.824;18.982;2023-08-20T04:15:44;13.23;;;8.65;;
40076;SDS011;25777;47.824;18.982;2023-08-20T04:20:40;14.13;;;9.15;;
40076;SDS011;25777;47.824;18.982;2023-08-20T04:23:07;13.75;;;8.32;;
40076;SDS011;25777;47.824;18.982;2023-08-20T04:25:35;12.88;;;8.65;;
40076;SDS011;25777;47.824;18.982;2023-08-20T04:28:02;13.30;;;8.88;;
40076;SDS011;25777;47.824;18.982;2023-08-20T04:30:28;12.90;;;8.35;;
40076;SDS011;25777;47.824;18.982;2023-08-20T04:32:56;13.73;;;8.70;;
40076;SDS011;25777;47.824;18.982;2023-08-20T04:35:22;14.55;;;8.98;;
40076;SDS011;25777;47.824;18.982;2023-08-20T04:37:55;12.43;;;8.10;;
40076;SDS011;25777;47.824;18.982;2023-08-20T04:45:49;14.40;;;8.65;;
40076;SDS011;25777;47.824;18.982;2023-08-20T04:48:15;12.13;;;8.30;;
40076;SDS011;25777;47.824;18.982;2023-08-20T04:50:41;14.35;;;8.88;;
40076;SDS011;25777;47.824;18.982;2023-08-20T04:53:07;13.98;;;9.05;;
40076;SDS011;25777;47.824;18.982;2023-08-20T04:55:35;13.63;;;8.50;;
40076;SDS011;25777;47.824;18.982;2023-08-20T04:58:08;14.40;;;9.55;;
40076;SDS011;25777;47.824;18.982;2023-08-20T05:00:36;14.27;;;8.88;;
40076;SDS011;25777;47.824;18.982;2023-08-20T05:03:02;17.98;;;8.98;;
40076;SDS011;25777;47.824;18.982;2023-08-20T05:08:17;18.08;;;9.60;;
40076;SDS011;25777;47.824;18.982;2023-08-20T05:10:43;16.20;;;9.32;;
40076;SDS011;25777;47.824;18.982;2023-08-20T05:13:16;14.23;;;9.00;;
40076;SDS011;25777;47.824;18.982;2023-08-20T05:15:45;14.27;;;9.40;;
40076;SDS011;25777;47.824;18.982;2023-08-20T05:20:50;12.20;;;8.52;;
40076;SDS011;25777;47.824;18.982;2023-08-20T05:23:27;13.25;;;8.48;;
40076;SDS011;25777;47.824;18.982;2023-08-20T05:25:59;12.25;;;8.65;;
40076;SDS011;25777;47.824;18.982;2023-08-20T05:28:25;13.35;;;8.45;;
40076;SDS011;25777;47.824;18.982;2023-08-20T05:36:10;14.93;;;8.75;;
40076;SDS011;25777;47.824;18.982;2023-08-20T05:38:36;12.18;;;8.32;;
40076;SDS011;25777;47.824;18.982;2023-08-20T05:41:03;12.93;;;8.63;;
40076;SDS011;25777;47.824;18.982;2023-08-20T05:43:28;14.63;;;9.52;;
40076;SDS011;25777;47.824;18.982;2023-08-20T05:48:28;14.77;;;8.45;;
40076;SDS011;25777;47.824;18.982;2023-08-20T05:53:32;12.55;;;8.25;;
40076;SDS011;25777;47.824;18.982;2023-08-20T05:55:58;12.38;;;8.27;;
40076;SDS011;25777;47.824;18.982;2023-08-20T06:01:02;13.30;;;8.43;;
40076;SDS011;25777;47.824;18.982;2023-08-20T06:03:28;11.77;;;8.05;;
40076;SDS011;25777;47.824;18.982;2023-08-20T06:05:56;12.35;;;7.72;;
40076;SDS011;25777;47.824;18.982;2023-08-20T06:08:23;12.38;;;7.70;;
40076;SDS011;25777;47.824;18.982;2023-08-20T06:10:49;13.20;;;7.88;;
40076;SDS011;25777;47.824;18.982;2023-08-20T06:13:16;12.02;;;8.15;;
40076;SDS011;25777;47.824;18.982;2023-08-20T06:15:49;11.98;;;8.10;;
40076;SDS011;25777;47.824;18.982;2023-08-20T06:20:48;11.70;;;7.63;;
40076;SDS011;25777;47.824;18.982;2023-08-20T06:23:14;10.73;;;7.22;;
40076;SDS011;25777;47.824;18.982;2023-08-20T06:28:11;10.75;;;7.55;;
40076;SDS011;25777;47.824;18.982;2023-08-20T06:30:37;12.15;;;7.50;;
40076;SDS011;25777;47.824;18.982;2023-08-20T06:33:15;11.88;;;7.63;;
40076;SDS011;25777;47.824;18.982;2023-08-20T06:35:42;10.23;;;7.38;;
40076;SDS011;25777;47.824;18.982;2023-08-20T06:38:07;9.75;;;7.47;;
40076;SDS011;25777;47.824;18.982;2023-08-20T06:40:43;10.23;;;6.95;;
40076;SDS011;25777;47.824;18.982;2023-08-20T06:43:08;9.38;;;6.93;;
40076;SDS011;25777;47.824;18.982;2023-08-20T06:45:34;10.27;;;7.10;;
40076;SDS011;25777;47.824;18.982;2023-08-20T06:48:00;11.48;;;7.82;;
40076;SDS011;25777;47.824;18.982;2023-08-20T06:50:28;9.15;;;7.03;;
40076;SDS011;25777;47.824;18.982;2023-08-20T06:52:54;9.88;;;6.80;;
40076;SDS011;25777;47.824;18.982;2023-08-20T06:55:24;10.00;;;6.55;;
40076;SDS011;25777;47.824;18.982;2023-08-20T06:57:51;9.40;;;6.65;;
40076;SDS011;25777;47.824;18.982;2023-08-20T07:00:17;11.45;;;6.82;;
40076;SDS011;25777;47.824;18.982;2023-08-20T07:02:53;10.48;;;7.05;;
40076;SDS011;25777;47.824;18.982;2023-08-20T07:05:19;10.02;;;6.38;;
40076;SDS011;25777;47.824;18.982;2023-08-20T07:07:47;9.23;;;6.38;;
40076;SDS011;25777;47.824;18.982;2023-08-20T07:10:12;8.27;;;6.53;;
40076;SDS011;25777;47.824;18.982;2023-08-20T07:15:08;8.23;;;6.43;;
40076;SDS011;25777;47.824;18.982;2023-08-20T07:20:11;9.75;;;6.72;;
40076;SDS011;25777;47.824;18.982;2023-08-20T07:22:37;9.07;;;6.32;;
40076;SDS011;25777;47.824;18.982;2023-08-20T07:25:12;7.32;;;5.80;;
40076;SDS011;25777;47.824;18.982;2023-08-20T07:33:02;8.65;;;6.53;;
40076;SDS011;25777;47.824;18.982;2023-08-20T07:35:31;9.48;;;7.00;;
40076;SDS011;25777;47.824;18.982;2023-08-20T07:40:50;8.98;;;6.45;;
40076;SDS011;25777;47.824;18.982;2023-08-20T07:43:18;9.75;;;6.80;;
40076;SDS011;25777;47.824;18.982;2023-08-20T07:45:54;7.65;;;6.03;;
40076;SDS011;25777;47.824;18.982;2023-08-20T07:48:21;11.10;;;6.18;;
40076;SDS011;25777;47.824;18.982;2023-08-20T07:50:47;8.77;;;6.47;;
40076;SDS011;25777;47.824;18.982;2023-08-20T07:56:04;7.72;;;5.93;;
40076;SDS011;25777;47.824;18.982;2023-08-20T07:58:38;7.55;;;5.78;;
40076;SDS011;25777;47.824;18.982;2023-08-20T08:01:06;8.80;;;6.43;;
40076;SDS011;25777;47.824;18.982;2023-08-20T08:03:33;9.32;;;6.72;;
40076;SDS011;25777;47.824;18.982;2023-08-20T08:06:08;10.98;;;5.82;;
40076;SDS011;25777;47.824;18.982;2023-08-20T08:08:43;8.57;;;6.50;;
40076;SDS011;25777;47.824;18.982;2023-08-20T08:13:54;8.88;;;6.57;;
40076;SDS011;25777;47.824;18.982;2023-08-20T08:16:20;8.70;;;6.25;;
40076;SDS011;25777;47.824;18.982;2023-08-20T08:21:52;10.38;;;6.18;;
40076;SDS011;25777;47.824;18.982;2023-08-20T08:24:23;8.23;;;6.40;;
40076;SDS011;25777;47.824;18.982;2023-08-20T08:29:20;8.75;;;6.70;;
40076;SDS011;25777;47.824;18.982;2023-08-20T08:37:15;8.85;;;6.55;;
40076;SDS011;25777;47.824;18.982;2023-08-20T08:39:49;7.97;;;6.20;;
40076;SDS011;25777;47.824;18.982;2023-08-20T08:45:15;8.70;;;6.28;;
40076;SDS011;25777;47.824;18.982;2023-08-20T08:50:16;6.75;;;5.85;;
40076;SDS011;25777;47.824;18.982;2023-08-20T08:52:47;8.48;;;5.88;;
40076;SDS011;25777;47.824;18.982;2023-08-20T08:55:16;7.90;;;6.50;;
40076;SDS011;25777;47.824;18.982;2023-08-20T09:03:00;9.18;;;6.85;;
40076;SDS011;25777;47.824;18.982;2023-08-20T09:05:25;8.32;;;6.45;;
40076;SDS011;25777;47.824;18.982;2023-08-20T09:10:26;8.43;;;6.88;;
40076;SDS011;25777;47.824;18.982;2023-08-20T09:18:09;8.00;;;6.70;;
40076;SDS011;25777;47.824;18.982;2023-08-20T09:20:42;9.40;;;6.63;;
40076;SDS011;25777;47.824;18.982;2023-08-20T09:23:11;7.43;;;5.97;;
40076;SDS011;25777;47.824;18.982;2023-08-20T09:25:39;7.32;;;6.15;;
40076;SDS011;25777;47.824;18.982;2023-08-20T09:28:13;8.60;;;6.15;;
40076;SDS011;25777;47.824;18.982;2023-08-20T09:30:58;8.43;;;6.55;;
40076;SDS011;25777;47.824;18.982;2023-08-20T09:33:27;7.78;;;6.78;;
40076;SDS011;25777;47.824;18.982;2023-08-20T09:36:02;7.60;;;6.38;;
40076;SDS011;25777;47.824;18.982;2023-08-20T09:38:39;9.30;;;6.90;;
40076;SDS011;25777;47.824;18.982;2023-08-20T09:43:41;7.75;;;6.60;;
40076;SDS011;25777;47.824;18.982;2023-08-20T09:46:17;8.70;;;6.63;;
40076;SDS011;25777;47.824;18.982;2023-08-20T09:48:48;8.93;;;7.13;;
40076;SDS011;25777;47.824;18.982;2023-08-20T09:59:10;8.23;;;6.65;;
40076;SDS011;25777;47.824;18.982;2023-08-20T10:01:38;7.85;;;6.38;;
40076;SDS011;25777;47.824;18.982;2023-08-20T10:06:39;7.85;;;6.30;;
40076;SDS011;25777;47.824;18.982;2023-08-20T10:09:18;8.65;;;6.63;;
40076;SDS011;25777;47.824;18.982;2023-08-20T10:11:45;6.80;;;6.10;;
40076;SDS011;25777;47.824;18.982;2023-08-20T10:14:11;8.05;;;6.55;;
40076;SDS011;25777;47.824;18.982;2023-08-20T10:16:38;8.38;;;5.75;;
40076;SDS011;25777;47.824;18.982;2023-08-20T10:19:09;8.30;;;5.85;;
40076;SDS011;25777;47.824;18.982;2023-08-20T10:21:45;7.75;;;5.95;;
40076;SDS011;25777;47.824;18.982;2023-08-20T10:24:21;6.78;;;6.05;;
40076;SDS011;25777;47.824;18.982;2023-08-20T10:27:06;7.32;;;6.10;;
40076;SDS011;25777;47.824;18.982;2023-08-20T10:38:13;7.05;;;5.82;;
40076;SDS011;25777;47.824;18.982;2023-08-20T10:51:46;7.75;;;6.20;;
40076;SDS011;25777;47.824;18.982;2023-08-20T10:59:26;7.43;;;6.63;;
40076;SDS011;25777;47.824;18.982;2023-08-20T11:01:55;6.30;;;5.70;;
40076;SDS011;25777;47.824;18.982;2023-08-20T11:04:23;7.95;;;6.20;;
40076;SDS011;25777;47.824;18.982;2023-08-20T11:07:00;7.13;;;6.20;;
40076;SDS011;25777;47.824;18.982;2023-08-20T11:09:28;7.32;;;6.40;;
40076;SDS011;25777;47.824;18.982;2023-08-20T11:11:55;6.88;;;6.07;;
40076;SDS011;25777;47.824;18.982;2023-08-20T11:14:24;7.97;;;6.22;;
40076;SDS011;25777;47.824;18.982;2023-08-20T11:16:57;7.88;;;6.10;;
40076;SDS011;25777;47.824;18.982;2023-08-20T11:19:23;7.80;;;5.80;;
40076;SDS011;25777;47.824;18.982;2023-08-20T11:21:51;7.88;;;5.60;;
40076;SDS011;25777;47.824;18.982;2023-08-20T11:24:19;6.80;;;5.72;;
40076;SDS011;25777;47.824;18.982;2023-08-20T11:26:48;6.32;;;5.50;;
40076;SDS011;25777;47.824;18.982;2023-08-20T11:29:16;7.38;;;6.30;;
40076;SDS011;25777;47.824;18.982;2023-08-20T11:34:17;7.50;;;5.78;;
40076;SDS011;25777;47.824;18.982;2023-08-20T11:39:36;11.05;;;6.18;;
40076;SDS011;25777;47.824;18.982;2023-08-20T11:42:05;6.70;;;5.28;;
40076;SDS011;25777;47.824;18.982;2023-08-20T11:44:41;5.80;;;5.18;;
40076;SDS011;25777;47.824;18.982;2023-08-20T11:47:19;6.20;;;5.30;;
40076;SDS011;25777;47.824;18.982;2023-08-20T11:49:44;8.55;;;6.35;;
40076;SDS011;25777;47.824;18.982;2023-08-20T11:52:10;6.15;;;5.30;;
40076;SDS011;25777;47.824;18.982;2023-08-20T11:57:08;7.45;;;5.32;;
40076;SDS011;25777;47.824;18.982;2023-08-20T11:59:36;5.90;;;5.30;;
40076;SDS011;25777;47.824;18.982;2023-08-20T12:02:03;6.30;;;5.05;;
40076;SDS011;25777;47.824;18.982;2023-08-20T12:04:40;6.13;;;5.00;;
40076;SDS011;25777;47.824;18.982;2023-08-20T12:12:48;7.28;;;5.45;;
40076;SDS011;25777;47.824;18.982;2023-08-20T12:20:30;6.18;;;4.72;;
40076;SDS011;25777;47.824;18.982;2023-08-20T12:25:35;6.30;;;5.13;;
40076;SDS011;25777;47.824;18.982;2023-08-20T12:28:03;6.50;;;4.72;;
40076;SDS011;25777;47.824;18.982;2023-08-20T12:30:31;5.93;;;4.80;;
40076;SDS011;25777;47.824;18.982;2023-08-20T12:35:41;8.05;;;5.22;;
40076;SDS011;25777;47.824;18.982;2023-08-20T12:38:10;5.55;;;4.95;;
40076;SDS011;25777;47.824;18.982;2023-08-20T12:43:28;5.80;;;5.20;;
40076;SDS011;25777;47.824;18.982;2023-08-20T12:53:47;5.25;;;4.75;;
40076;SDS011;25777;47.824;18.982;2023-08-20T12:56:17;7.82;;;4.72;;
40076;SDS011;25777;47.824;18.982;2023-08-20T13:06:15;7.57;;;5.32;;
40076;SDS011;25777;47.824;18.982;2023-08-20T13:08:55;7.20;;;5.63;;
40076;SDS011;25777;47.824;18.982;2023-08-20T13:11:22;7.53;;;5.60;;
40076;SDS011;25777;47.824;18.982;2023-08-20T13:13:51;6.55;;;5.40;;
40076;SDS011;25777;47.824;18.982;2023-08-20T13:16:18;9.85;;;6.03;;
40076;SDS011;25777;47.824;18.982;2023-08-20T13:21:19;5.95;;;5.00;;
40076;SDS011;25777;47.824;18.982;2023-08-20T13:26:24;6.43;;;5.40;;
40076;SDS011;25777;47.824;18.982;2023-08-20T13:33:52;7.15;;;5.65;;
40076;SDS011;25777;47.824;18.982;2023-08-20T13:36:25;8.20;;;5.07;;
40076;SDS011;25777;47.824;18.982;2023-08-20T13:38:51;8.40;;;5.22;;
40076;SDS011;25777;47.824;18.982;2023-08-20T13:41:17;7.07;;;5.93;;
40076;SDS011;25777;47.824;18.982;2023-08-20T13:43:44;6.25;;;5.32;;
40076;SDS011;25777;47.824;18.982;2023-08-20T13:46:10;6.55;;;5.30;;
40076;SDS011;25777;47.824;18.982;2023-08-20T13:48:50;6.85;;;5.47;;
40076;SDS011;25777;47.824;18.982;2023-08-20T13:53:48;7.32;;;5.57;;
40076;SDS011;25777;47.824;18.982;2023-08-20T13:56:14;6.80;;;6.10;;
40076;SDS011;25777;47.824;18.982;2023-08-20T13:58:44;7.00;;;5.88;;
40076;SDS011;25777;47.824;18.982;2023-08-20T14:03:47;6.88;;;5.65;;
40076;SDS011;25777;47.824;18.982;2023-08-20T14:08:59;7.63;;;5.90;;
40076;SDS011;25777;47.824;18.982;2023-08-20T14:11:26;8.85;;;6.07;;
40076;SDS011;25777;47.824;18.982;2023-08-20T14:16:37;8.43;;;6.70;;
40076;SDS011;25777;47.824;18.982;2023-08-20T14:21:34;7.60;;;5.88;;
40076;SDS011;25777;47.824;18.982;2023-08-20T14:24:01;7.30;;;6.10;;
40076;SDS011;25777;47.824;18.982;2023-08-20T14:26:37;7.15;;;5.75;;
40076;SDS011;25777;47.824;18.982;2023-08-20T14:29:03;6.70;;;5.82;;
40076;SDS011;25777;47.824;18.982;2023-08-20T14:34:19;6.90;;;5.72;;
40076;SDS011;25777;47.824;18.982;2023-08-20T14:36:47;6.90;;;5.88;;
40076;SDS011;25777;47.824;18.982;2023-08-20T14:42:13;7.57;;;6.07;;
40076;SDS011;25777;47.824;18.982;2023-08-20T14:48:03;8.07;;;6.43;;
40076;SDS011;25777;47.824;18.982;2023-08-20T14:50:37;7.65;;;6.47;;
40076;SDS011;25777;47.824;18.982;2023-08-20T14:53:03;6.75;;;6.00;;
40076;SDS011;25777;47.824;18.982;2023-08-20T15:01:36;7.35;;;5.82;;
40076;SDS011;25777;47.824;18.982;2023-08-20T15:04:04;7.32;;;5.88;;
40076;SDS011;25777;47.824;18.982;2023-08-20T15:06:32;8.18;;;6.45;;
40076;SDS011;25777;47.824;18.982;2023-08-20T15:09:06;7.93;;;6.70;;
40076;SDS011;25777;47.824;18.982;2023-08-20T15:11:42;8.57;;;6.15;;
40076;SDS011;25777;47.824;18.982;2023-08-20T15:19:40;8.20;;;6.47;;
40076;SDS011;25777;47.824;18.982;2023-08-20T15:22:06;10.23;;;6.32;;
40076;SDS011;25777;47.824;18.982;2023-08-20T15:24:33;10.32;;;6.13;;
40076;SDS011;25777;47.824;18.982;2023-08-20T15:27:00;7.70;;;5.95;;
40076;SDS011;25777;47.824;18.982;2023-08-20T15:34:33;6.60;;;5.90;;
40076;SDS011;25777;47.824;18.982;2023-08-20T15:37:08;9.52;;;5.70;;
40076;SDS011;25777;47.824;18.982;2023-08-20T15:39:38;9.98;;;5.97;;
40076;SDS011;25777;47.824;18.982;2023-08-20T15:53:20;7.45;;;5.80;;
40076;SDS011;25777;47.824;18.982;2023-08-20T15:58:27;8.32;;;5.80;;
40076;SDS011;25777;47.824;18.982;2023-08-20T16:01:06;6.90;;;5.75;;
40076;SDS011;25777;47.824;18.982;2023-08-20T16:03:43;8.18;;;5.60;;
40076;SDS011;25777;47.824;18.982;2023-08-20T16:11:19;10.38;;;5.70;;
40076;SDS011;25777;47.824;18.982;2023-08-20T16:13:52;7.93;;;5.65;;
40076;SDS011;25777;47.824;18.982;2023-08-20T16:16:19;7.38;;;5.97;;
40076;SDS011;25777;47.824;18.982;2023-08-20T16:18:47;6.60;;;5.55;;
40076;SDS011;25777;47.824;18.982;2023-08-20T16:37:36;6.55;;;5.63;;
40076;SDS011;25777;47.824;18.982;2023-08-20T16:43:00;8.20;;;5.75;;
40076;SDS011;25777;47.824;18.982;2023-08-20T16:48:44;10.40;;;6.65;;
40076;SDS011;25777;47.824;18.982;2023-08-20T16:53:56;10.05;;;6.20;;
40076;SDS011;25777;47.824;18.982;2023-08-20T17:02:12;8.02;;;5.88;;
40076;SDS011;25777;47.824;18.982;2023-08-20T17:04:57;8.27;;;6.47;;
40076;SDS011;25777;47.824;18.982;2023-08-20T17:13:31;8.38;;;6.05;;
40076;SDS011;25777;47.824;18.982;2023-08-20T17:15:57;7.68;;;6.10;;
40076;SDS011;25777;47.824;18.982;2023-08-20T17:18:23;8.82;;;6.50;;
40076;SDS011;25777;47.824;18.982;2023-08-20T17:20:49;9.23;;;6.22;;
40076;SDS011;25777;47.824;18.982;2023-08-20T17:26:23;7.00;;;5.57;;
40076;SDS011;25777;47.824;18.982;2023-08-20T17:28:50;8.82;;;6.05;;
40076;SDS011;25777;47.824;18.982;2023-08-20T17:33:59;8.63;;;6.45;;
40076;SDS011;25777;47.824;18.982;2023-08-20T17:39:13;9.45;;;6.00;;
40076;SDS011;25777;47.824;18.982;2023-08-20T17:41:50;9.05;;;6.30;;
40076;SDS011;25777;47.824;18.982;2023-08-20T17:55:41;9.60;;;7.03;;
40076;SDS011;25777;47.824;18.982;2023-08-20T17:58:07;9.13;;;6.30;;
40076;SDS011;25777;47.824;18.982;2023-08-20T18:00:43;9.60;;;6.80;;
40076;SDS011;25777;47.824;18.982;2023-08-20T18:03:11;9.93;;;6.85;;
40076;SDS011;25777;47.824;18.982;2023-08-20T18:08:10;13.88;;;8.55;;
40076;SDS011;25777;47.824;18.982;2023-08-20T18:10:37;16.40;;;9.50;;
40076;SDS011;25777;47.824;18.982;2023-08-20T18:16:02;10.57;;;7.57;;
40076;SDS011;25777;47.824;18.982;2023-08-20T18:24:55;12.20;;;7.32;;
40076;SDS011;25777;47.824;18.982;2023-08-20T18:27:21;10.93;;;7.72;;
40076;SDS011;25777;47.824;18.982;2023-08-20T18:29:48;11.48;;;8.02;;
40076;SDS011;25777;47.824;18.982;2023-08-20T18:34:58;11.50;;;8.10;;
40076;SDS011;25777;47.824;18.982;2023-08-20T18:37:27;12.10;;;8.20;;
40076;SDS011;25777;47.824;18.982;2023-08-20T18:42:22;9.60;;;6.80;;
40076;SDS011;25777;47.824;18.982;2023-08-20T18:47:19;11.48;;;7.15;;
40076;SDS011;25777;47.824;18.982;2023-08-20T18:49:46;10.45;;;7.45;;
40076;SDS011;25777;47.824;18.982;2023-08-20T18:55:05;9.35;;;6.82;;
40076;SDS011;25777;47.824;18.982;2023-08-20T18:57:32;11.50;;;7.13;;
40076;SDS011;25777;47.824;18.982;2023-08-20T18:59:59;11.15;;;6.53;;
40076;SDS011;25777;47.824;18.982;2023-08-20T19:02:25;10.32;;;6.88;;
40076;SDS011;25777;47.824;18.982;2023-08-20T19:04:51;9.50;;;7.03;;
40076;SDS011;25777;47.824;18.982;2023-08-20T19:07:19;9.18;;;6.82;;
40076;SDS011;25777;47.824;18.982;2023-08-20T19:09:49;10.18;;;7.03;;
40076;SDS011;25777;47.824;18.982;2023-08-20T19:12:17;9.75;;;6.85;;
40076;SDS011;25777;47.824;18.982;2023-08-20T19:14:45;10.00;;;6.80;;
40076;SDS011;25777;47.824;18.982;2023-08-20T19:19:49;9.32;;;6.55;;
40076;SDS011;25777;47.824;18.982;2023-08-20T19:22:14;11.55;;;7.10;;
40076;SDS011;25777;47.824;18.982;2023-08-20T19:24:41;9.90;;;6.97;;
40076;SDS011;25777;47.824;18.982;2023-08-20T19:27:10;10.77;;;7.07;;
40076;SDS011;25777;47.824;18.982;2023-08-20T19:29:47;9.57;;;6.70;;
40076;SDS011;25777;47.824;18.982;2023-08-20T19:43:28;10.48;;;6.88;;
40076;SDS011;25777;47.824;18.982;2023-08-20T19:49:47;12.68;;;7.03;;
40076;SDS011;25777;47.824;18.982;2023-08-20T19:52:14;10.52;;;7.25;;
40076;SDS011;25777;47.824;18.982;2023-08-20T19:54:42;10.07;;;7.10;;
40076;SDS011;25777;47.824;18.982;2023-08-20T19:57:08;11.18;;;7.20;;
40076;SDS011;25777;47.824;18.982;2023-08-20T20:02:26;10.60;;;7.43;;
40076;SDS011;25777;47.824;18.982;2023-08-20T20:04:52;9.57;;;6.53;;
40076;SDS011;25777;47.824;18.982;2023-08-20T20:09:46;12.40;;;7.03;;
40076;SDS011;25777;47.824;18.982;2023-08-20T20:12:13;11.23;;;7.03;;
40076;SDS011;25777;47.824;18.982;2023-08-20T20:14:40;12.10;;;7.65;;
40076;SDS011;25777;47.824;18.982;2023-08-20T20:17:08;13.45;;;7.75;;
40076;SDS011;25777;47.824;18.982;2023-08-20T20:22:39;11.50;;;7.68;;
40076;SDS011;25777;47.824;18.982;2023-08-20T20:25:10;9.52;;;6.78;;
40076;SDS011;25777;47.824;18.982;2023-08-20T20:27:37;10.40;;;7.40;;
40076;SDS011;25777;47.824;18.982;2023-08-20T20:32:41;12.68;;;8.18;;
40076;SDS011;25777;47.824;18.982;2023-08-20T20:37:38;10.43;;;7.63;;
40076;SDS011;25777;47.824;18.982;2023-08-20T20:40:04;11.20;;;7.72;;
40076;SDS011;25777;47.824;18.982;2023-08-20T20:42:34;11.10;;;7.60;;
40076;SDS011;25777;47.824;18.982;2023-08-20T20:45:01;12.85;;;8.60;;
40076;SDS011;25777;47.824;18.982;2023-08-20T20:47:29;11.95;;;7.78;;
40076;SDS011;25777;47.824;18.982;2023-08-20T20:49:55;11.65;;;8.00;;
40076;SDS011;25777;47.824;18.982;2023-08-20T20:52:22;12.70;;;7.78;;
40076;SDS011;25777;47.824;18.982;2023-08-20T20:54:50;11.32;;;7.82;;
40076;SDS011;25777;47.824;18.982;2023-08-20T20:57:17;11.27;;;7.63;;
40076;SDS011;25777;47.824;18.982;2023-08-20T20:59:45;11.65;;;7.68;;
40076;SDS011;25777;47.824;18.982;2023-08-20T21:07:20;11.88;;;7.88;;
40076;SDS011;25777;47.824;18.982;2023-08-20T21:09:46;13.43;;;7.40;;
40076;SDS011;25777;47.824;18.982;2023-08-20T21:12:12;12.15;;;7.35;;